Monday, July 23, 2018, 11:37 AM GMT
Back to Local

CYBN, Borden, Ont.

Location: , , Canada Lat: 44.25
Local Time: 11:37 AM GMT (11:37 GMT) Lon: -79.917
Time Zone: GMT Elev: 731 ft

Show me the last for .
Show Decoded

2018-07-23 11:00 METAR CYBN 231100Z AUTO 23002KT 9SM OVC008 OVC038 18/18 A2994 RMK SLP137 =
2018-07-23 10:16 METAR CYBN 231016Z AUTO 26002KT 9SM FEW008 BKN014 17/17 A2992 =
2018-07-23 10:00 METAR CYBN 231000Z AUTO 26002KT 9SM OVC008 OVC031 OVC036 17/17 A2992 RMK SLP131
                 =
2018-07-23 09:37 METAR CYBN 230937Z AUTO 00000KT 9SM BKN009 BKN031 OVC036 17/17 A2991 =
2018-07-23 09:00 METAR CYBN 230900Z AUTO 00000KT 9SM OVC036 17/17 A2991 RMK SLP128 =
2018-07-23 08:00 METAR CYBN 230800Z AUTO 00000KT 9SM BKN040 BKN069 17/17 A2990 RMK SLP127 =
2018-07-23 07:00 METAR CYBN 230700Z AUTO 00000KT 9SM BKN040 OVC056 OVC071 17/17 A2991 RMK SLP128
                 =
2018-07-23 06:00 METAR CYBN 230600Z AUTO 00000KT 9SM FEW086 17/17 A2990 RMK SLP127 =
2018-07-23 05:00 METAR CYBN 230500Z AUTO 27002KT 9SM CLR 17/16 A2991 RMK SLP129 =
2018-07-23 04:00 METAR CYBN 230400Z AUTO 00000KT 9SM FEW036 18/17 A2992 RMK SLP131 =
2018-07-23 03:00 METAR CYBN 230300Z AUTO 12004KT 9SM BKN036 20/18 A2991 RMK SLP130 =
2018-07-23 02:00 METAR CYBN 230200Z AUTO 12005KT 9SM CLR 20/18 A2991 RMK SLP129 =
2018-07-23 01:00 METAR CYBN 230100Z AUTO 11006KT 9SM FEW042 20/18 A2989 RMK SLP120 =
2018-07-23 00:00 METAR CYBN 230000Z AUTO 12007KT 9SM BKN041 21/18 A2986 RMK SLP112 =
2018-07-22 23:34 METAR CYBN 222334Z AUTO 13006KT 9SM OVC028 21/18 A2986 =
2018-07-22 23:26 METAR CYBN 222326Z AUTO 13008KT 9SM OVC019 OVC044 OVC060 21/18 A2986 =
2018-07-22 23:23 METAR CYBN 222323Z AUTO 13008KT 9SM -RA OVC019 OVC048 OVC060 21/18 A2986 =
2018-07-22 23:00 METAR CYBN 222300Z AUTO 13009KT 9SM OVC019 OVC035 OVC039 OVC060 21/18 A2985 RMK
                 SLP108 =
2018-07-22 22:00 METAR CYBN 222200Z AUTO 13007KT 9SM SCT030 OVC041 21/19 A2982 RMK SLP099 =
2018-07-22 21:00 METAR CYBN 222100Z AUTO 12009KT 9SM SCT016 BKN020 BKN029 OVC035 21/19 A2981 RMK
                 SLP094 =
2018-07-22 20:59 METAR CYBN 222059Z AUTO 13007KT 9SM SCT016 BKN020 BKN028 OVC032 21/20 A2980 =
2018-07-22 20:45 METAR CYBN 222045Z AUTO 12005KT 9SM SCT011 BKN032 OVC037 21/20 A2980 =
2018-07-22 20:25 METAR CYBN 222025Z AUTO 15007KT 9SM FEW006 BKN009 OVC029 21/20 A2980 =
2018-07-22 20:00 METAR CYBN 222000Z AUTO 16008KT 2 1/2SM FEW005 BKN009 OVC017 20/19 A2979 RMK
                 VSBY VRBL 2.5V9.+ PCPN 1.0MM PAST HR SLP087 =
2018-07-22 19:43 METAR CYBN 221943Z AUTO 09010KT 2 1/4SM -DZ OVC006 20/20 A2978 =
2018-07-22 19:00 METAR CYBN 221900Z AUTO 07007KT 3SM OVC005 20/19 A2977 RMK PCPN 2.0MM PAST HR
                 SLP081 =
2018-07-22 18:45 METAR CYBN 221845Z AUTO 06007KT 3SM OVC005 20/19 A2977 =
2018-07-22 18:28 METAR CYBN 221828Z AUTO 06006KT 030V090 2 1/4SM OVC004 19/19 A2977 =
2018-07-22 18:17 METAR CYBN 221817Z AUTO 06006KT 2SM -RA OVC004 19/19 A2977 =
2018-07-22 18:03 METAR CYBN 221803Z AUTO 05005KT 010V070 2 1/4SM -RA OVC005 19/19 A2977 RMK PCPN
                 1.0MM PAST HR =
2018-07-22 17:56 METAR CYBN 221756Z AUTO 04005KT 010V070 2 1/2SM -RA OVC003 19/19 A2977 RMK VSBY
                 VRBL 2.3V5.0 =
2018-07-22 17:51 METAR CYBN 221751Z AUTO 03004KT 2 1/2SM -RA OVC004 19/18 A2977 RMK ICG PAST HR =
2018-07-22 17:46 METAR CYBN 221746Z AUTO 04005KT 010V070 2 1/4SM -RA OVC005 19/18 A2977 RMK ICG
                 PAST HR =
2018-07-22 17:37 METAR CYBN 221737Z AUTO 04005KT 360V070 4SM -RA OVC003 19/18 A2977 RMK ICG PAST
                 HR =
2018-07-22 17:20 METAR CYBN 221720Z AUTO 01007KT 350V050 3SM -RA FEW003 OVC006 18/18 A2977 RMK
                 ICG PAST HR =
2018-07-22 17:15 METAR CYBN 221715Z AUTO 03005KT 3SM -RA OVC003 18/18 A2977 RMK ICG PAST HR =
2018-07-22 17:10 METAR CYBN 221710Z AUTO 03005KT 2 1/2SM -RA OVC003 18/18 A2977 RMK VSBY VRBL
                 2.0V9.+ ICG PAST HR =
2018-07-22 17:00 METAR CYBN 221700Z AUTO 02007KT 350V050 1 5/8SM -RA OVC004 18/18 A2978 RMK ICG
                 PAST HR PCPN 1.5MM PAST HR SLP083 =
2018-07-22 16:55 METAR CYBN 221655Z AUTO 01005KT 350V050 1 5/8SM -RA OVC005 18/18 A2978 RMK ICG
                 PAST HR =
2018-07-22 16:44 METAR CYBN 221644Z AUTO 02006KT 340V040 1 3/4SM -DZ OVC003 18/17 A2978 RMK ICG =
2018-07-22 16:09 METAR CYBN 221609Z AUTO 01005KT 350V050 2 1/4SM OVC004 17/17 A2978 =
2018-07-22 16:00 METAR CYBN 221600Z AUTO 01005KT 5SM OVC005 17/17 A2979 RMK SLP086 =
2018-07-22 15:00 METAR CYBN 221500Z AUTO 03007KT 3SM RA OVC013 OVC033 OVC042 16/16 A2981 RMK PCPN
                 4.0MM PAST HR SLP094 =
2018-07-22 14:00 METAR CYBN 221400Z AUTO 01009KT 3SM RA OVC027 17/16 A2982 RMK PCPN 1.5MM PAST HR
                 SLP098 =
2018-07-22 13:39 METAR CYBN 221339Z AUTO 36008KT 340V050 6SM -RA FEW031 BKN053 OVC062 17/16 A2983
                 =
2018-07-22 13:34 METAR CYBN 221334Z AUTO 36006KT 340V050 6SM -RA BKN007 BKN031 OVC053 17/16 A2983
                 =
2018-07-22 13:12 METAR CYBN 221312Z AUTO 35004KT 310V010 9SM -RA SCT012 BKN058 BKN078 17/17 A2984
                 =
2018-07-22 13:00 METAR CYBN 221300Z AUTO 34005KT 310V010 8SM -RA BKN012 BKN058 BKN066 17/16 A2984
                 RMK SLP104 =
2018-07-22 12:00 METAR CYBN 221200Z AUTO 34004KT 300V020 9SM -RA FEW051 FEW073 17/16 A2985 =
2018-07-22 11:51 METAR CYBN 221151Z AUTO 36006KT 330V030 9SM -RA FEW051 FEW077 FEW097 17/16 A2986
                 =

Support USWX by starting your Amazon purchase here.